Time;durP1;ratioP1;P1;durP2;ratioP2;P2;SDS_P1;SDS_P2;PMS_P1;PMS_P2;Temp;Humidity;BMP_temperature;BMP_pressure;BME280_temperature;BME280_humidity;BME280_pressure;Samples;Min_cycle;Max_cycle;Signal;HPM_P1;HPM_P2
2024/01/13 00:01:28;;;;;;;;;43.00;30.25;;;;;;;;5044587;28;29655;-82
2024/01/13 00:03:53;;;;;;;;;46.50;33.00;;;;;;;;5047191;28;28241;-82
2024/01/13 00:06:18;;;;;;;;;49.75;36.75;;;;;;;;5036720;28;28439;-82
2024/01/13 00:08:44;;;;;;;;;34.00;30.00;;;;;;;;5050433;28;28369;-82
2024/01/13 00:11:09;;;;;;;;;57.25;40.00;;;;;;;;5032881;28;28819;-83
2024/01/13 00:13:34;;;;;;;;;50.25;37.25;;;;;;;;5040154;28;28616;-83
2024/01/13 00:15:59;;;;;;;;;56.25;36.00;;;;;;;;5044656;28;28677;-82
2024/01/13 00:18:25;;;;;;;;;40.00;32.00;;;;;;;;5048401;28;27965;-82
2024/01/13 00:20:50;;;;;;;;;30.75;28.50;;;;;;;;5046482;28;28575;-83
2024/01/13 00:23:15;;;;;;;;;45.75;34.25;;;;;;;;5049407;28;28145;-82
2024/01/13 00:25:41;;;;;;;;;41.50;34.00;;;;;;;;5066303;28;27804;-82
2024/01/13 00:28:06;;;;;;;;;53.25;34.50;;;;;;;;5070485;28;27916;-84
2024/01/13 00:30:31;;;;;;;;;50.25;38.00;;;;;;;;5048893;28;28962;-83
2024/01/13 00:32:56;;;;;;;;;48.50;37.25;;;;;;;;5057762;28;28527;-84
2024/01/13 00:35:22;;;;;;;;;45.00;36.50;;;;;;;;5048901;28;28354;-83
2024/01/13 00:37:47;;;;;;;;;43.00;31.75;;;;;;;;5036436;28;28867;-83
2024/01/13 00:40:15;;;;;;;;;51.75;36.75;;;;;;;;5050290;28;29688;-83
2024/01/13 00:42:40;;;;;;;;;45.25;35.25;;;;;;;;5048078;28;28866;-84
2024/01/13 00:45:06;;;;;;;;;38.00;33.75;;;;;;;;5030991;28;28935;-82
2024/01/13 00:47:31;;;;;;;;;35.25;29.50;;;;;;;;5030524;28;28585;-84
2024/01/13 00:49:57;;;;;;;;;52.50;33.00;;;;;;;;5033937;28;28576;-83
2024/01/13 00:52:22;;;;;;;;;60.75;40.25;;;;;;;;5048602;28;28737;-83
2024/01/13 00:54:47;;;;;;;;;47.25;33.25;;;;;;;;5032207;28;28383;-82
2024/01/13 00:57:12;;;;;;;;;47.00;39.50;;;;;;;;5028079;28;28545;-82
2024/01/13 00:59:37;;;;;;;;;50.25;38.25;;;;;;;;5025465;28;28449;-83
2024/01/13 01:02:03;;;;;;;;;45.25;32.50;;;;;;;;5033448;28;28444;-83
2024/01/13 01:04:28;;;;;;;;;51.50;39.00;;;;;;;;5036450;28;28658;-84
2024/01/13 01:06:53;;;;;;;;;36.50;29.00;;;;;;;;5040751;28;28686;-83
2024/01/13 01:09:18;;;;;;;;;50.50;38.00;;;;;;;;5052004;28;29695;-83
2024/01/13 01:11:44;;;;;;;;;39.75;32.25;;;;;;;;5045102;28;28429;-80
2024/01/13 01:14:10;;;;;;;;;37.50;29.50;;;;;;;;5050011;28;28321;-81
2024/01/13 01:16:35;;;;;;;;;43.75;31.50;;;;;;;;5055259;28;29405;-84
2024/01/13 01:19:00;;;;;;;;;36.50;29.00;;;;;;;;5029723;28;28581;-83
2024/01/13 01:21:26;;;;;;;;;39.00;31.75;;;;;;;;5045027;28;28492;-84
2024/01/13 01:23:51;;;;;;;;;40.50;32.00;;;;;;;;5045133;28;27984;-84
2024/01/13 01:26:17;;;;;;;;;47.50;30.75;;;;;;;;5067199;28;28524;-83
2024/01/13 01:28:42;;;;;;;;;42.50;29.50;;;;;;;;5053562;28;28519;-83
2024/01/13 01:31:07;;;;;;;;;40.00;30.00;;;;;;;;5046760;28;28770;-84
2024/01/13 01:33:33;;;;;;;;;45.00;32.00;;;;;;;;5033084;28;27900;-83
2024/01/13 01:35:58;;;;;;;;;40.75;33.50;;;;;;;;5044123;28;29175;-83
2024/01/13 01:38:23;;;;;;;;;51.25;36.25;;;;;;;;5042924;28;29931;-82
2024/01/13 01:40:52;;;;;;;;;49.25;36.50;;;;;;;;5043338;28;28535;-82
2024/01/13 01:43:17;;;;;;;;;37.25;29.25;;;;;;;;5043109;28;28390;-83
2024/01/13 01:45:43;;;;;;;;;37.25;29.50;;;;;;;;5043954;28;28533;-82
2024/01/13 01:48:08;;;;;;;;;40.75;30.50;;;;;;;;5040644;28;28419;-83
2024/01/13 01:50:34;;;;;;;;;37.00;28.00;;;;;;;;5041819;28;28563;-83
2024/01/13 01:52:59;;;;;;;;;40.50;27.75;;;;;;;;5042169;28;28410;-81
2024/01/13 01:55:24;;;;;;;;;34.00;29.50;;;;;;;;5042642;28;29525;-84
2024/01/13 01:57:50;;;;;;;;;42.75;27.50;;;;;;;;5043380;28;28533;-85
2024/01/13 02:00:18;;;;;;;;;37.50;29.25;;;;;;;;5036139;28;28495;-81
2024/01/13 02:02:43;;;;;;;;;38.00;27.75;;;;;;;;5033101;28;28703;-83
2024/01/13 02:05:09;;;;;;;;;36.25;31.25;;;;;;;;5031912;28;29395;-84
2024/01/13 02:07:34;;;;;;;;;43.50;29.50;;;;;;;;5036655;28;29012;-83
2024/01/13 02:10:00;;;;;;;;;36.25;28.00;;;;;;;;5039389;28;28911;-83
2024/01/13 02:12:25;;;;;;;;;35.00;28.50;;;;;;;;5030465;28;28461;-83
2024/01/13 02:14:51;;;;;;;;;35.00;28.00;;;;;;;;5043679;28;29860;-83
2024/01/13 02:17:16;;;;;;;;;29.00;21.75;;;;;;;;5025319;28;29289;-83
2024/01/13 02:19:41;;;;;;;;;34.25;26.25;;;;;;;;5042376;28;28805;-82
2024/01/13 02:22:08;;;;;;;;;28.00;23.00;;;;;;;;5047094;28;28481;-83
2024/01/13 02:24:33;;;;;;;;;33.25;25.00;;;;;;;;5033264;28;28363;-86
2024/01/13 02:26:58;;;;;;;;;32.75;25.75;;;;;;;;5047668;28;31518;-84
2024/01/13 02:29:23;;;;;;;;;32.00;27.00;;;;;;;;5040685;28;28810;-84
2024/01/13 02:31:49;;;;;;;;;29.50;26.75;;;;;;;;5034851;28;28512;-84
2024/01/13 02:34:14;;;;;;;;;32.75;23.25;;;;;;;;5041634;28;29396;-84
2024/01/13 02:36:39;;;;;;;;;33.00;25.00;;;;;;;;5064581;28;28481;-82
2024/01/13 02:39:04;;;;;;;;;34.25;27.00;;;;;;;;5038797;28;28396;-84
2024/01/13 02:41:30;;;;;;;;;33.25;25.25;;;;;;;;5030995;28;28369;-84
2024/01/13 02:43:55;;;;;;;;;39.50;23.25;;;;;;;;5021504;28;28861;-83
2024/01/13 02:46:20;;;;;;;;;32.25;28.75;;;;;;;;5032292;28;29210;-82
2024/01/13 02:48:48;;;;;;;;;36.25;28.25;;;;;;;;5051783;28;28886;-83
2024/01/13 02:51:15;;;;;;;;;31.75;26.75;;;;;;;;5038611;28;28623;-83
2024/01/13 02:53:40;;;;;;;;;35.50;29.00;;;;;;;;5031350;28;28439;-82
2024/01/13 02:56:05;;;;;;;;;32.00;25.25;;;;;;;;5026771;28;30620;-82
2024/01/13 02:58:31;;;;;;;;;36.25;25.00;;;;;;;;5027700;28;28588;-83
2024/01/13 03:00:56;;;;;;;;;31.25;26.00;;;;;;;;5042347;28;28702;-82
2024/01/13 03:03:21;;;;;;;;;34.25;22.00;;;;;;;;5027892;28;28688;-81
2024/01/13 03:05:47;;;;;;;;;26.50;19.00;;;;;;;;5028667;28;28911;-82
2024/01/13 03:08:12;;;;;;;;;38.00;24.75;;;;;;;;5033906;28;28883;-83
2024/01/13 03:10:37;;;;;;;;;44.50;26.50;;;;;;;;5040689;28;28485;-83
2024/01/13 03:13:03;;;;;;;;;32.50;22.00;;;;;;;;5032764;28;29083;-83
2024/01/13 03:15:28;;;;;;;;;13.75;8.75;;;;;;;;5028074;28;30704;-84
2024/01/13 03:17:53;;;;;;;;;23.25;19.50;;;;;;;;5041536;28;29392;-84
2024/01/13 03:20:18;;;;;;;;;26.00;19.50;;;;;;;;5041841;28;28382;-82
2024/01/13 03:22:45;;;;;;;;;25.50;17.75;;;;;;;;5035813;28;29575;-83
2024/01/13 03:25:10;;;;;;;;;23.50;18.25;;;;;;;;5037477;28;28948;-81
2024/01/13 03:27:36;;;;;;;;;22.00;16.50;;;;;;;;5041775;28;28695;-81
2024/01/13 03:30:01;;;;;;;;;28.50;20.00;;;;;;;;5028855;28;29084;-83
2024/01/13 03:32:27;;;;;;;;;27.25;18.00;;;;;;;;5035153;28;28442;-83
2024/01/13 03:34:52;;;;;;;;;31.25;19.00;;;;;;;;5029730;28;29720;-83
2024/01/13 03:37:17;;;;;;;;;21.50;16.75;;;;;;;;5041164;28;28710;-83
2024/01/13 03:39:53;;;;;;;;;28.25;22.00;;;;;;;;5049103;28;28704;-84
2024/01/13 03:42:18;;;;;;;;;24.25;18.75;;;;;;;;5051577;28;29021;-83
2024/01/13 03:44:44;;;;;;;;;24.25;16.25;;;;;;;;5049817;28;29495;-82
2024/01/13 03:47:09;;;;;;;;;23.50;12.75;;;;;;;;5041686;28;28552;-83
2024/01/13 03:49:34;;;;;;;;;27.50;19.50;;;;;;;;5045086;28;28496;-82
2024/01/13 03:51:59;;;;;;;;;19.00;18.50;;;;;;;;5043993;28;28680;-83
2024/01/13 03:54:25;;;;;;;;;22.75;20.00;;;;;;;;5033755;28;28643;-83
2024/01/13 03:56:51;;;;;;;;;28.25;14.75;;;;;;;;5040041;28;28377;-82
2024/01/13 03:59:16;;;;;;;;;29.75;20.50;;;;;;;;5036604;28;29090;-85
2024/01/13 04:01:42;;;;;;;;;22.75;18.00;;;;;;;;5040805;28;29699;-82
2024/01/13 04:04:07;;;;;;;;;30.25;18.00;;;;;;;;5045879;28;30292;-84
2024/01/13 04:06:32;;;;;;;;;28.50;20.50;;;;;;;;5052728;28;28560;-84
2024/01/13 04:08:57;;;;;;;;;24.25;18.75;;;;;;;;5050977;28;28397;-84
2024/01/13 04:11:23;;;;;;;;;27.25;17.50;;;;;;;;5036435;28;28428;-84
2024/01/13 04:13:50;;;;;;;;;31.00;19.25;;;;;;;;5039387;28;28534;-83
2024/01/13 04:16:15;;;;;;;;;25.00;19.50;;;;;;;;5034130;28;28595;-83
2024/01/13 04:18:41;;;;;;;;;29.00;16.25;;;;;;;;5034790;28;28506;-83
2024/01/13 04:21:06;;;;;;;;;22.25;20.25;;;;;;;;5023577;28;28609;-83
2024/01/13 04:23:31;;;;;;;;;23.25;16.75;;;;;;;;5031261;28;28824;-83
2024/01/13 04:25:57;;;;;;;;;22.00;13.25;;;;;;;;5035026;28;28899;-82
2024/01/13 04:28:22;;;;;;;;;25.75;20.00;;;;;;;;5040839;28;28812;-83
2024/01/13 04:30:48;;;;;;;;;24.75;19.00;;;;;;;;5039531;28;29534;-85
2024/01/13 04:33:13;;;;;;;;;27.50;21.75;;;;;;;;5038264;28;28532;-83
2024/01/13 04:35:38;;;;;;;;;23.00;16.25;;;;;;;;5040135;28;28685;-83
2024/01/13 04:38:04;;;;;;;;;31.00;23.50;;;;;;;;5036273;28;28639;-82
2024/01/13 04:40:33;;;;;;;;;26.25;17.00;;;;;;;;5041804;28;28805;-83
2024/01/13 04:43:00;;;;;;;;;25.50;19.00;;;;;;;;5029559;28;28492;-83
2024/01/13 04:45:25;;;;;;;;;23.00;22.00;;;;;;;;5024434;28;29107;-82
2024/01/13 04:47:50;;;;;;;;;25.75;20.75;;;;;;;;5030525;28;28606;-83
2024/01/13 04:50:16;;;;;;;;;29.50;19.00;;;;;;;;5035143;28;28473;-84
2024/01/13 04:52:41;;;;;;;;;27.50;18.75;;;;;;;;5034377;28;30403;-84
2024/01/13 04:55:07;;;;;;;;;26.00;17.75;;;;;;;;5043784;28;28532;-84
2024/01/13 04:57:32;;;;;;;;;23.25;13.75;;;;;;;;5039924;28;28583;-84
2024/01/13 04:59:57;;;;;;;;;21.00;16.00;;;;;;;;5037389;28;28856;-82
2024/01/13 05:02:22;;;;;;;;;27.00;21.75;;;;;;;;5028446;28;28683;-85
2024/01/13 05:04:48;;;;;;;;;18.75;16.50;;;;;;;;5033325;28;27968;-85
2024/01/13 05:07:13;;;;;;;;;27.50;19.25;;;;;;;;5042431;28;28858;-84
2024/01/13 05:09:39;;;;;;;;;23.25;16.75;;;;;;;;5033969;28;28666;-83
2024/01/13 05:12:08;;;;;;;;;26.50;15.75;;;;;;;;5037769;28;28632;-83
2024/01/13 05:14:34;;;;;;;;;28.00;24.75;;;;;;;;5025662;28;28639;-84
2024/01/13 05:16:59;;;;;;;;;34.00;22.00;;;;;;;;5040823;28;29099;-83
2024/01/13 05:19:26;;;;;;;;;30.25;22.25;;;;;;;;5030706;28;28509;-83
2024/01/13 05:21:53;;;;;;;;;28.50;24.25;;;;;;;;5033996;28;28522;-83
2024/01/13 05:24:18;;;;;;;;;30.00;22.00;;;;;;;;5033036;28;29728;-83
2024/01/13 05:26:43;;;;;;;;;25.50;20.25;;;;;;;;5042704;28;28461;-85
2024/01/13 05:29:09;;;;;;;;;22.75;19.50;;;;;;;;5044945;28;28391;-83
2024/01/13 05:31:34;;;;;;;;;23.00;16.00;;;;;;;;5047432;28;28921;-84
2024/01/13 05:33:59;;;;;;;;;34.75;22.25;;;;;;;;5037476;28;28481;-84
2024/01/13 05:36:24;;;;;;;;;23.50;17.75;;;;;;;;5036587;28;28602;-84
2024/01/13 05:38:49;;;;;;;;;21.50;17.00;;;;;;;;5042766;28;28700;-84
2024/01/13 05:41:15;;;;;;;;;23.00;18.00;;;;;;;;5045708;28;28827;-82
2024/01/13 05:43:40;;;;;;;;;28.25;20.25;;;;;;;;5022813;28;28551;-84
2024/01/13 05:46:05;;;;;;;;;24.00;17.00;;;;;;;;5029479;28;28738;-83
2024/01/13 05:48:31;;;;;;;;;27.50;20.50;;;;;;;;5029855;28;28582;-82
2024/01/13 05:50:56;;;;;;;;;29.50;20.50;;;;;;;;5032292;28;29376;-84
2024/01/13 05:53:21;;;;;;;;;24.50;17.75;;;;;;;;5031676;28;29741;-84
2024/01/13 05:55:46;;;;;;;;;19.00;17.75;;;;;;;;5033650;28;28890;-84
2024/01/13 05:58:12;;;;;;;;;24.25;20.25;;;;;;;;5034861;28;28728;-82
2024/01/13 06:00:37;;;;;;;;;26.25;19.50;;;;;;;;5032347;28;28852;-81
2024/01/13 06:03:02;;;;;;;;;32.75;19.00;;;;;;;;5016323;28;28438;-83
2024/01/13 06:05:28;;;;;;;;;27.00;23.00;;;;;;;;5042504;28;28970;-84
2024/01/13 06:07:57;;;;;;;;;25.75;20.50;;;;;;;;5030700;28;29915;-83
2024/01/13 06:10:22;;;;;;;;;21.00;19.50;;;;;;;;5034250;28;29688;-82
2024/01/13 06:12:47;;;;;;;;;15.75;15.75;;;;;;;;5055526;28;28636;-83
2024/01/13 06:15:13;;;;;;;;;26.00;21.50;;;;;;;;5034439;28;28474;-85
2024/01/13 06:17:38;;;;;;;;;23.75;18.00;;;;;;;;5041214;28;28342;-87
2024/01/13 06:20:03;;;;;;;;;25.25;18.50;;;;;;;;5049179;28;28521;-87
2024/01/13 06:22:29;;;;;;;;;27.25;16.75;;;;;;;;5035608;28;28703;-85
2024/01/13 06:24:54;;;;;;;;;24.50;19.25;;;;;;;;5058468;28;28576;-85
2024/01/13 06:27:19;;;;;;;;;27.75;21.50;;;;;;;;5043096;28;28434;-84
2024/01/13 06:29:47;;;;;;;;;26.00;18.50;;;;;;;;5030740;28;29498;-83
2024/01/13 06:32:18;;;;;;;;;31.50;23.75;;;;;;;;5037725;28;28080;-85
2024/01/13 06:34:44;;;;;;;;;32.25;26.00;;;;;;;;5040433;28;28491;-83
2024/01/13 06:37:09;;;;;;;;;26.00;20.50;;;;;;;;5036036;28;29409;-84
2024/01/13 06:39:34;;;;;;;;;32.25;20.25;;;;;;;;5044654;28;28246;-84
2024/01/13 06:42:02;;;;;;;;;31.00;22.75;;;;;;;;5038150;28;28670;-81
2024/01/13 06:44:27;;;;;;;;;30.50;26.25;;;;;;;;5045659;28;28858;-83
2024/01/13 06:46:52;;;;;;;;;26.00;19.25;;;;;;;;5033019;28;28718;-85
2024/01/13 06:49:17;;;;;;;;;25.50;20.25;;;;;;;;5032147;28;29813;-84
2024/01/13 06:51:43;;;;;;;;;29.75;24.25;;;;;;;;5032162;28;28561;-83
2024/01/13 06:54:08;;;;;;;;;31.25;27.00;;;;;;;;5046951;28;28387;-85
2024/01/13 06:56:41;;;;;;;;;37.25;26.50;;;;;;;;5042798;28;29048;-82
2024/01/13 06:59:06;;;;;;;;;31.50;22.25;;;;;;;;5035958;28;29764;-82
2024/01/13 07:01:33;;;;;;;;;29.25;22.25;;;;;;;;5052178;28;28750;-85
2024/01/13 07:03:58;;;;;;;;;31.25;26.00;;;;;;;;5043198;28;28447;-82
2024/01/13 07:06:23;;;;;;;;;31.75;23.50;;;;;;;;5029847;28;29032;-75
2024/01/13 07:08:49;;;;;;;;;17.25;13.50;;;;;;;;5029448;28;28631;-77
2024/01/13 07:11:14;;;;;;;;;30.75;21.25;;;;;;;;5026822;28;30525;-79
2024/01/13 07:13:43;;;;;;;;;29.75;22.25;;;;;;;;5022895;28;29538;-78
2024/01/13 07:16:09;;;;;;;;;23.50;18.00;;;;;;;;5018449;28;28910;-80
2024/01/13 07:18:34;;;;;;;;;23.75;19.25;;;;;;;;5028039;28;28642;-77
2024/01/13 07:20:59;;;;;;;;;29.50;23.75;;;;;;;;5027334;28;28600;-78
2024/01/13 07:23:24;;;;;;;;;34.75;24.50;;;;;;;;5029696;28;28517;-77
2024/01/13 07:25:49;;;;;;;;;35.50;22.25;;;;;;;;5026303;28;29083;-77
2024/01/13 07:28:15;;;;;;;;;33.50;28.25;;;;;;;;5023228;28;28588;-76
2024/01/13 07:30:40;;;;;;;;;25.50;21.75;;;;;;;;5020339;28;28528;-79
2024/01/13 07:33:05;;;;;;;;;30.00;21.25;;;;;;;;5029732;28;28525;-77
2024/01/13 07:35:31;;;;;;;;;45.25;35.00;;;;;;;;5037846;28;28362;-77
2024/01/13 07:37:56;;;;;;;;;35.25;25.00;;;;;;;;5023753;28;28518;-77
2024/01/13 07:40:21;;;;;;;;;30.75;25.75;;;;;;;;5021852;28;28524;-77
2024/01/13 07:42:48;;;;;;;;;22.75;15.00;;;;;;;;5041312;28;28492;-75
2024/01/13 07:45:17;;;;;;;;;34.75;24.25;;;;;;;;5026305;28;29537;-79
2024/01/13 07:47:43;;;;;;;;;31.75;24.25;;;;;;;;5037018;28;28706;-79
2024/01/13 07:50:08;;;;;;;;;34.75;24.50;;;;;;;;5036324;28;28498;-77
2024/01/13 07:52:33;;;;;;;;;42.00;27.75;;;;;;;;5031147;28;28483;-79
2024/01/13 07:54:59;;;;;;;;;36.75;29.75;;;;;;;;5034913;28;28557;-78
2024/01/13 07:57:26;;;;;;;;;32.75;25.50;;;;;;;;5032581;28;30127;-77
2024/01/13 07:59:51;;;;;;;;;32.75;29.00;;;;;;;;5017587;28;28789;-76
2024/01/13 08:02:17;;;;;;;;;34.00;27.75;;;;;;;;5031515;28;28691;-74
2024/01/13 08:04:43;;;;;;;;;30.50;22.50;;;;;;;;5030118;28;28985;-78
2024/01/13 08:07:09;;;;;;;;;35.25;30.00;;;;;;;;5029577;28;28666;-76
2024/01/13 08:09:34;;;;;;;;;32.75;25.50;;;;;;;;5031136;28;28954;-76
2024/01/13 08:11:59;;;;;;;;;32.00;23.50;;;;;;;;5030753;28;28514;-76
2024/01/13 08:14:25;;;;;;;;;45.25;33.00;;;;;;;;5034086;28;28576;-74
2024/01/13 08:16:50;;;;;;;;;38.75;28.50;;;;;;;;5031561;28;29362;-81
2024/01/13 08:19:15;;;;;;;;;41.25;33.00;;;;;;;;5034690;28;28920;-77
2024/01/13 08:21:40;;;;;;;;;37.75;31.25;;;;;;;;5040222;28;28541;-77
2024/01/13 08:24:06;;;;;;;;;34.00;24.50;;;;;;;;5032703;28;29241;-76
2024/01/13 08:26:31;;;;;;;;;48.00;35.50;;;;;;;;5025950;28;29996;-77
2024/01/13 08:28:56;;;;;;;;;35.00;26.25;;;;;;;;5016792;28;28599;-76
2024/01/13 08:31:22;;;;;;;;;36.75;27.75;;;;;;;;5022152;28;28606;-77
2024/01/13 08:33:47;;;;;;;;;36.50;26.25;;;;;;;;5040443;28;28836;-76
2024/01/13 08:36:12;;;;;;;;;31.25;24.75;;;;;;;;5034674;28;29983;-79
2024/01/13 08:38:37;;;;;;;;;38.00;26.00;;;;;;;;5031274;28;28955;-78
2024/01/13 08:41:03;;;;;;;;;35.25;27.50;;;;;;;;5018163;28;28510;-77
2024/01/13 08:43:28;;;;;;;;;41.50;30.25;;;;;;;;5028680;28;28588;-76
2024/01/13 08:45:53;;;;;;;;;20.25;15.50;;;;;;;;5028427;28;28554;-79
2024/01/13 08:48:18;;;;;;;;;29.50;23.75;;;;;;;;5027998;28;29306;-78
2024/01/13 08:50:44;;;;;;;;;43.50;33.25;;;;;;;;5030523;28;28423;-76
2024/01/13 08:53:09;;;;;;;;;39.50;29.75;;;;;;;;5038827;28;28872;-76
2024/01/13 08:55:34;;;;;;;;;45.00;32.75;;;;;;;;5021269;28;28888;-77
2024/01/13 08:57:59;;;;;;;;;37.00;28.25;;;;;;;;5031601;28;28875;-79
2024/01/13 09:00:25;;;;;;;;;36.75;33.25;;;;;;;;5035536;28;28590;-81
2024/01/13 09:02:50;;;;;;;;;30.50;22.75;;;;;;;;5017097;28;28577;-79
2024/01/13 09:05:26;;;;;;;;;46.25;31.00;;;;;;;;5025125;28;29914;-76
2024/01/13 09:07:51;;;;;;;;;42.00;29.25;;;;;;;;5029799;28;28367;-79
2024/01/13 09:10:16;;;;;;;;;46.00;33.75;;;;;;;;5042766;28;28433;-80
2024/01/13 09:12:42;;;;;;;;;35.25;20.25;;;;;;;;5020593;28;29366;-79
2024/01/13 09:15:09;;;;;;;;;37.25;30.50;;;;;;;;5039712;28;30040;-75
2024/01/13 09:17:35;;;;;;;;;47.00;33.25;;;;;;;;5035257;28;28410;-78
2024/01/13 09:20:00;;;;;;;;;37.00;29.75;;;;;;;;5045997;28;28434;-77
2024/01/13 09:22:25;;;;;;;;;48.75;34.25;;;;;;;;5028629;28;29008;-77
2024/01/13 09:24:50;;;;;;;;;52.75;36.00;;;;;;;;5019804;28;29810;-78
2024/01/13 09:27:16;;;;;;;;;48.75;31.75;;;;;;;;5027880;28;28707;-77
2024/01/13 09:29:41;;;;;;;;;49.75;36.50;;;;;;;;5032659;28;28548;-76
2024/01/13 09:32:07;;;;;;;;;42.25;29.75;;;;;;;;5029039;28;28682;-76
2024/01/13 09:34:32;;;;;;;;;42.50;32.75;;;;;;;;5030115;28;29578;-76
2024/01/13 09:36:58;;;;;;;;;43.25;28.75;;;;;;;;5031046;28;28590;-75
2024/01/13 09:39:23;;;;;;;;;32.50;28.00;;;;;;;;5013227;28;28802;-77
2024/01/13 09:41:48;;;;;;;;;41.75;29.00;;;;;;;;5013038;28;28645;-77
2024/01/13 09:44:23;;;;;;;;;35.00;25.50;;;;;;;;5015254;28;28770;-76
2024/01/13 09:46:51;;;;;;;;;37.75;28.50;;;;;;;;5023338;28;28523;-75
2024/01/13 09:49:17;;;;;;;;;36.50;28.00;;;;;;;;5027604;28;28517;-77
2024/01/13 09:51:43;;;;;;;;;37.00;30.50;;;;;;;;5039992;28;28513;-76
2024/01/13 09:54:14;;;;;;;;;37.25;26.75;;;;;;;;5037919;28;30857;-76
2024/01/13 09:56:44;;;;;;;;;44.75;24.25;;;;;;;;5046175;28;28884;-77
2024/01/13 09:59:09;;;;;;;;;37.50;29.25;;;;;;;;5043472;28;28456;-76
2024/01/13 10:01:36;;;;;;;;;29.75;24.50;;;;;;;;5032607;28;29012;-77
2024/01/13 10:04:01;;;;;;;;;39.50;30.50;;;;;;;;5037424;28;28874;-77
2024/01/13 10:06:26;;;;;;;;;34.25;27.25;;;;;;;;5037326;28;28712;-78
2024/01/13 10:08:51;;;;;;;;;44.75;31.00;;;;;;;;5043374;28;28474;-76
2024/01/13 10:11:17;;;;;;;;;41.25;32.75;;;;;;;;5043921;28;28387;-77
2024/01/13 10:13:42;;;;;;;;;44.25;29.50;;;;;;;;5038413;28;29262;-77
2024/01/13 10:16:07;;;;;;;;;78.50;59.75;;;;;;;;5042677;28;28704;-77
2024/01/13 10:18:33;;;;;;;;;36.00;27.00;;;;;;;;5026389;28;28718;-77
2024/01/13 10:20:59;;;;;;;;;40.00;32.75;;;;;;;;5025859;28;28478;-77
2024/01/13 10:23:24;;;;;;;;;40.50;31.75;;;;;;;;5010667;28;28924;-77
2024/01/13 10:25:49;;;;;;;;;40.50;27.75;;;;;;;;5026183;28;28800;-78
2024/01/13 10:28:15;;;;;;;;;28.50;24.25;;;;;;;;5032593;28;28679;-79
2024/01/13 10:30:41;;;;;;;;;42.25;35.50;;;;;;;;5033918;28;28633;-79
2024/01/13 10:33:08;;;;;;;;;37.50;23.25;;;;;;;;5028497;28;28860;-78
2024/01/13 10:35:33;;;;;;;;;36.75;29.00;;;;;;;;5032958;28;28586;-78
2024/01/13 10:37:59;;;;;;;;;37.00;28.75;;;;;;;;5037687;28;28464;-77
2024/01/13 10:40:24;;;;;;;;;25.25;14.00;;;;;;;;5036875;28;28825;-81
2024/01/13 10:42:53;;;;;;;;;39.50;28.50;;;;;;;;5031705;28;28500;-79
2024/01/13 10:45:21;;;;;;;;;32.00;27.50;;;;;;;;5020894;28;28789;-79
2024/01/13 10:47:50;;;;;;;;;37.25;25.50;;;;;;;;5025592;28;28523;-79
2024/01/13 10:50:16;;;;;;;;;32.50;28.50;;;;;;;;5018203;28;28698;-77
2024/01/13 10:52:48;;;;;;;;;83.75;58.00;;;;;;;;5037498;28;29315;-76
2024/01/13 10:55:14;;;;;;;;;46.50;31.00;;;;;;;;5021683;28;28738;-77
2024/01/13 10:57:40;;;;;;;;;42.75;32.50;;;;;;;;5017588;28;29421;-76
2024/01/13 11:00:08;;;;;;;;;40.50;31.00;;;;;;;;5019150;28;28451;-78
2024/01/13 11:02:33;;;;;;;;;52.25;36.50;;;;;;;;5011979;28;28680;-78
2024/01/13 11:04:59;;;;;;;;;37.75;29.25;;;;;;;;5015093;28;29088;-78
2024/01/13 11:07:25;;;;;;;;;46.75;30.00;;;;;;;;5013215;28;28761;-77
2024/01/13 11:09:52;;;;;;;;;24.00;22.75;;;;;;;;5008666;28;28997;-81
2024/01/13 11:12:17;;;;;;;;;40.25;29.75;;;;;;;;5027523;28;29987;-77
2024/01/13 11:14:55;;;;;;;;;42.00;36.75;;;;;;;;5040260;28;28411;-81
2024/01/13 11:17:20;;;;;;;;;36.00;31.00;;;;;;;;5029229;28;28488;-80
2024/01/13 11:19:46;;;;;;;;;33.25;30.75;;;;;;;;5040389;28;28531;-79
2024/01/13 11:22:31;;;;;;;;;49.00;35.25;;;;;;;;5020874;28;29619;-80
2024/01/13 11:24:56;;;;;;;;;45.75;34.00;;;;;;;;5028806;28;28412;-80
2024/01/13 11:27:24;;;;;;;;;36.50;31.25;;;;;;;;5033656;28;28269;-80
2024/01/13 11:29:51;;;;;;;;;41.75;31.75;;;;;;;;5044657;28;29765;-79
2024/01/13 11:32:16;;;;;;;;;40.00;33.25;;;;;;;;5024771;28;28832;-78
2024/01/13 11:34:44;;;;;;;;;39.50;31.25;;;;;;;;5031174;28;30191;-80
2024/01/13 11:37:10;;;;;;;;;45.00;34.50;;;;;;;;5045958;28;28833;-80
2024/01/13 11:39:36;;;;;;;;;42.50;34.50;;;;;;;;5022931;28;28552;-78
2024/01/13 11:42:03;;;;;;;;;45.50;34.75;;;;;;;;5013580;28;28833;-77
2024/01/13 11:44:34;;;;;;;;;46.50;34.25;;;;;;;;5031161;28;29480;-78
2024/01/13 11:47:02;;;;;;;;;27.00;19.00;;;;;;;;5031829;28;28470;-77
2024/01/13 11:49:38;;;;;;;;;29.50;23.50;;;;;;;;5022143;28;29221;-76
2024/01/13 11:52:04;;;;;;;;;43.25;28.25;;;;;;;;5024978;28;28767;-76
2024/01/13 11:54:30;;;;;;;;;38.00;30.50;;;;;;;;5022561;28;28505;-76
2024/01/13 11:56:59;;;;;;;;;37.75;28.00;;;;;;;;5017480;28;28567;-77
2024/01/13 11:59:25;;;;;;;;;34.50;24.00;;;;;;;;5025751;28;28485;-78
2024/01/13 12:01:52;;;;;;;;;34.25;26.75;;;;;;;;5026711;28;29603;-77
2024/01/13 12:04:17;;;;;;;;;42.75;35.25;;;;;;;;5029266;28;29357;-78
2024/01/13 12:06:43;;;;;;;;;43.50;34.75;;;;;;;;5025376;28;28566;-80
2024/01/13 12:09:09;;;;;;;;;32.00;27.50;;;;;;;;5021618;28;29764;-80
2024/01/13 12:11:34;;;;;;;;;47.00;38.00;;;;;;;;5031440;28;28561;-80
2024/01/13 12:14:03;;;;;;;;;38.75;31.50;;;;;;;;5028568;28;28455;-80
2024/01/13 12:16:29;;;;;;;;;50.75;39.00;;;;;;;;5032603;28;28548;-79
2024/01/13 12:18:54;;;;;;;;;53.75;39.50;;;;;;;;5033779;28;28834;-79
2024/01/13 12:21:20;;;;;;;;;61.25;45.25;;;;;;;;5025434;28;30094;-79
2024/01/13 12:23:45;;;;;;;;;77.75;59.50;;;;;;;;5021364;28;28751;-77
2024/01/13 12:26:10;;;;;;;;;69.50;50.25;;;;;;;;5021156;28;28703;-79
2024/01/13 12:28:36;;;;;;;;;59.75;43.00;;;;;;;;5015059;28;28898;-78
2024/01/13 12:31:02;;;;;;;;;74.00;53.25;;;;;;;;5030829;28;30076;-82
2024/01/13 12:33:27;;;;;;;;;58.75;47.00;;;;;;;;5021015;28;29351;-78
2024/01/13 12:35:59;;;;;;;;;58.25;44.75;;;;;;;;5027453;28;28592;-78
2024/01/13 12:38:28;;;;;;;;;55.50;45.00;;;;;;;;5054475;28;29240;-78
2024/01/13 12:40:53;;;;;;;;;61.25;42.75;;;;;;;;5033917;28;28881;-80
2024/01/13 12:43:19;;;;;;;;;62.50;48.75;;;;;;;;5026340;28;29544;-82
2024/01/13 12:45:44;;;;;;;;;57.25;42.75;;;;;;;;5029869;28;28580;-81
2024/01/13 12:48:09;;;;;;;;;59.25;45.00;;;;;;;;5021979;28;29553;-81
2024/01/13 12:50:34;;;;;;;;;61.50;46.75;;;;;;;;5023973;28;28604;-81
2024/01/13 12:53:00;;;;;;;;;61.25;44.00;;;;;;;;5026576;28;28832;-78
2024/01/13 12:55:25;;;;;;;;;52.00;43.00;;;;;;;;5024556;28;28932;-77
2024/01/13 12:57:50;;;;;;;;;63.00;45.25;;;;;;;;5028153;28;29451;-76
2024/01/13 13:00:17;;;;;;;;;60.50;41.75;;;;;;;;5024959;28;28756;-79
2024/01/13 13:02:43;;;;;;;;;53.50;39.00;;;;;;;;5036623;28;28394;-78
2024/01/13 13:05:08;;;;;;;;;58.50;44.00;;;;;;;;5033774;28;28873;-77
2024/01/13 13:07:33;;;;;;;;;45.50;37.50;;;;;;;;5034784;28;28659;-77
2024/01/13 13:09:59;;;;;;;;;55.00;42.50;;;;;;;;5032447;28;28873;-78
2024/01/13 13:12:24;;;;;;;;;60.50;45.50;;;;;;;;5029241;28;28506;-77
2024/01/13 13:14:49;;;;;;;;;54.75;40.75;;;;;;;;5020121;28;28505;-76
2024/01/13 13:17:15;;;;;;;;;54.50;41.00;;;;;;;;5026310;28;28684;-77
2024/01/13 13:19:40;;;;;;;;;53.25;42.50;;;;;;;;5020865;28;28796;-77
2024/01/13 13:22:07;;;;;;;;;47.75;36.50;;;;;;;;5036899;28;28806;-77
2024/01/13 13:24:32;;;;;;;;;54.00;40.50;;;;;;;;5038368;28;28557;-78
2024/01/13 13:26:57;;;;;;;;;46.25;36.00;;;;;;;;5033953;28;29436;-79
2024/01/13 13:29:23;;;;;;;;;49.75;38.00;;;;;;;;5034982;28;28575;-77
2024/01/13 13:31:50;;;;;;;;;55.50;41.75;;;;;;;;5056242;28;28950;-78
2024/01/13 13:34:15;;;;;;;;;55.25;40.75;;;;;;;;5019278;28;28429;-78
2024/01/13 13:36:40;;;;;;;;;51.75;40.25;;;;;;;;5029530;28;28930;-76
2024/01/13 13:39:05;;;;;;;;;47.75;37.75;;;;;;;;5015366;28;29707;-77
2024/01/13 13:41:31;;;;;;;;;49.75;37.25;;;;;;;;5019156;28;28550;-77
2024/01/13 13:43:56;;;;;;;;;50.25;39.25;;;;;;;;5020902;28;28850;-76
2024/01/13 13:46:22;;;;;;;;;58.25;40.50;;;;;;;;5030415;28;28438;-76
2024/01/13 13:48:47;;;;;;;;;52.25;42.25;;;;;;;;5034960;28;29172;-77
2024/01/13 13:51:12;;;;;;;;;51.25;39.75;;;;;;;;5045647;28;28395;-77
2024/01/13 13:53:37;;;;;;;;;58.25;45.75;;;;;;;;5038644;28;28891;-77
2024/01/13 13:56:03;;;;;;;;;51.75;43.00;;;;;;;;5039930;28;28771;-76
2024/01/13 13:58:28;;;;;;;;;53.25;42.75;;;;;;;;5034810;28;29151;-80
2024/01/13 14:00:55;;;;;;;;;63.75;49.75;;;;;;;;5032752;28;28792;-77
2024/01/13 14:03:21;;;;;;;;;58.25;45.25;;;;;;;;5026544;28;28664;-77
2024/01/13 14:05:46;;;;;;;;;58.00;44.75;;;;;;;;5030380;28;28715;-76
2024/01/13 14:08:12;;;;;;;;;51.50;40.00;;;;;;;;5040484;28;28761;-77